Terminal Aerodrome Forecast
Issued by NWS

Current Version | Previous Version | Graphics & Text | Print | Product List | Glossary On
Versions: 1 2 3 4 5 6 7 8 9 10 11 12 13 14 15 16 17
000
FTUS41 KILN 231737
TAFLUK
TAF
KLUK 231737Z 2318/2418 05012G18KT P6SM BKN150
     FM232300 05006KT P6SM BKN200
     FM241600 07007KT P6SM SCT050=

USA.gov is the U.S. government's official web portal to all federal, state and local government web resources and services.